createdAt,value
2018-04-27T00:01:14.967Z,7.61
2018-04-27T00:03:42.651Z,7.62
2018-04-27T00:06:10.267Z,7.62
2018-04-27T00:08:37.918Z,7.62
2018-04-27T00:11:05.538Z,7.55
2018-04-27T00:13:33.159Z,7.57
2018-04-27T00:16:00.831Z,7.50
2018-04-27T00:18:28.477Z,7.58
2018-04-27T00:20:56.120Z,7.74
2018-04-27T00:23:23.788Z,7.62
2018-04-27T00:25:51.426Z,7.50
2018-04-27T00:28:19.033Z,7.48
2018-04-27T00:30:46.652Z,7.47
2018-04-27T00:33:14.375Z,7.47
2018-04-27T00:35:41.973Z,7.33
2018-04-27T00:38:09.639Z,7.38
2018-04-27T00:40:37.239Z,7.43
2018-04-27T00:43:04.961Z,7.40
2018-04-27T00:45:32.675Z,7.37
2018-04-27T00:48:00.481Z,7.40
2018-04-27T00:50:28.172Z,7.54
2018-04-27T00:53:07.900Z,7.53
2018-04-27T00:55:35.575Z,7.58
2018-04-27T00:58:03.178Z,7.54
2018-04-27T01:00:30.764Z,7.18
2018-04-27T01:02:58.398Z,7.21
2018-04-27T01:05:25.981Z,7.22
2018-04-27T01:07:53.644Z,7.23
2018-04-27T01:10:21.230Z,7.37
2018-04-27T01:12:48.869Z,7.41
2018-04-27T01:15:16.478Z,7.53
2018-04-27T01:17:44.140Z,7.61
2018-04-27T01:20:11.776Z,7.72
2018-04-27T01:22:39.580Z,7.70
2018-04-27T01:25:07.265Z,7.71
2018-04-27T01:27:35.716Z,7.65
2018-04-27T01:30:03.392Z,7.73
2018-04-27T01:32:30.982Z,7.69
2018-04-27T01:34:58.612Z,7.71
2018-04-27T01:37:26.254Z,7.70
2018-04-27T01:39:53.901Z,7.74
2018-04-27T01:42:21.506Z,7.70
2018-04-27T01:44:49.170Z,7.69
2018-04-27T01:47:16.785Z,7.67
2018-04-27T01:49:44.436Z,7.78
2018-04-27T01:52:12.178Z,7.70
2018-04-27T01:54:39.898Z,7.62
2018-04-27T01:57:07.613Z,7.46
2018-04-27T01:59:35.367Z,7.59
2018-04-27T02:02:03.021Z,7.61
2018-04-27T02:04:30.889Z,7.63
2018-04-27T02:06:58.505Z,7.71
2018-04-27T02:09:26.124Z,7.70
2018-04-27T02:11:53.730Z,7.79
2018-04-27T02:14:21.460Z,7.80
2018-04-27T02:16:49.110Z,7.88
2018-04-27T02:19:16.780Z,7.88
2018-04-27T02:21:44.498Z,7.83
2018-04-27T02:24:12.085Z,7.83
2018-04-27T02:26:39.733Z,7.74
2018-04-27T02:29:07.332Z,7.78
2018-04-27T02:31:34.978Z,7.88
2018-04-27T02:34:02.661Z,7.93
2018-04-27T02:36:30.346Z,7.96
2018-04-27T02:38:58.044Z,7.92
2018-04-27T02:41:25.648Z,7.88
2018-04-27T02:43:53.285Z,7.94
2018-04-27T02:46:20.920Z,7.85
2018-04-27T02:48:48.512Z,7.80
2018-04-27T02:51:16.212Z,7.79
2018-04-27T02:53:43.915Z,7.81
2018-04-27T02:56:11.535Z,7.76
2018-04-27T02:58:39.153Z,7.67
2018-04-27T03:01:06.809Z,7.71
2018-04-27T03:03:34.426Z,7.77
2018-04-27T03:06:02.011Z,7.85
2018-04-27T03:08:29.656Z,7.92
2018-04-27T03:10:57.268Z,7.90
2018-04-27T03:13:24.892Z,7.96
2018-04-27T03:15:52.461Z,7.90
2018-04-27T03:18:20.110Z,7.94
2018-04-27T03:20:47.734Z,7.78
2018-04-27T03:23:15.388Z,7.67
2018-04-27T03:25:43.152Z,7.65
2018-04-27T03:28:10.806Z,7.52
2018-04-27T03:30:38.425Z,7.61
2018-04-27T03:33:06.038Z,7.65
2018-04-27T03:35:33.680Z,7.54
2018-04-27T03:38:01.308Z,7.48
2018-04-27T03:40:28.960Z,7.54
2018-04-27T03:42:56.639Z,7.53
2018-04-27T03:45:24.296Z,7.60
2018-04-27T03:47:51.940Z,7.58
2018-04-27T03:50:19.694Z,7.63
2018-04-27T03:52:47.273Z,7.52
2018-04-27T03:55:15.000Z,7.70
2018-04-27T03:57:42.693Z,7.63
2018-04-27T04:00:22.061Z,7.72
2018-04-27T04:03:01.483Z,7.68
2018-04-27T04:05:29.178Z,7.64
2018-04-27T04:07:56.845Z,7.67
2018-04-27T04:10:24.440Z,7.76
2018-04-27T04:12:52.036Z,7.85
2018-04-27T04:15:19.681Z,7.92
2018-04-27T04:17:47.322Z,7.86
2018-04-27T04:20:15.032Z,7.98
2018-04-27T04:22:42.681Z,7.75
2018-04-27T04:25:10.303Z,7.63
2018-04-27T04:27:37.964Z,7.76
2018-04-27T04:30:05.632Z,7.81
2018-04-27T04:32:33.238Z,8.02
2018-04-27T04:35:00.930Z,7.88
2018-04-27T04:37:28.555Z,7.82
2018-04-27T04:39:56.385Z,7.84
2018-04-27T04:42:24.007Z,7.87
2018-04-27T04:44:51.602Z,7.86
2018-04-27T04:47:19.473Z,7.87
2018-04-27T04:49:47.178Z,7.89
2018-04-27T04:52:14.855Z,7.86
2018-04-27T04:54:42.564Z,7.92
2018-04-27T04:57:10.178Z,7.92
2018-04-27T04:59:37.790Z,7.98
2018-04-27T05:02:05.434Z,8.03
2018-04-27T05:04:33.070Z,8.24
2018-04-27T05:07:00.735Z,7.93
2018-04-27T05:09:28.339Z,7.99
2018-04-27T05:11:55.969Z,8.04
2018-04-27T05:14:23.610Z,7.98
2018-04-27T05:16:51.231Z,7.93
2018-04-27T05:19:18.944Z,8.02
2018-04-27T05:21:46.632Z,8.15
2018-04-27T05:24:14.269Z,8.23
2018-04-27T05:26:41.884Z,8.05
2018-04-27T05:29:09.542Z,8.14
2018-04-27T05:31:37.194Z,8.12
2018-04-27T05:34:04.841Z,8.17
2018-04-27T05:36:32.535Z,8.24
2018-04-27T05:39:00.138Z,8.40
2018-04-27T05:41:27.838Z,8.46
2018-04-27T05:43:55.605Z,8.53
2018-04-27T05:46:23.349Z,8.52
2018-04-27T05:48:51.021Z,8.44
2018-04-27T05:51:18.716Z,8.28
2018-04-27T05:53:46.343Z,8.36
2018-04-27T05:56:14.062Z,8.33
2018-04-27T05:58:41.756Z,8.36
2018-04-27T06:01:09.377Z,8.54
2018-04-27T06:03:49.184Z,8.70
2018-04-27T06:06:17.048Z,8.84
2018-04-27T06:08:45.486Z,8.96
2018-04-27T06:11:13.912Z,9.14
2018-04-27T06:13:41.572Z,9.28
2018-04-27T06:16:09.272Z,9.35
2018-04-27T06:18:36.897Z,9.39
2018-04-27T06:21:04.974Z,9.50
2018-04-27T06:23:32.837Z,9.62
2018-04-27T06:26:00.584Z,9.79
2018-04-27T06:28:28.365Z,9.92
2018-04-27T06:30:56.136Z,10.14
2018-04-27T06:33:24.000Z,10.34
2018-04-27T06:35:51.679Z,10.36
2018-04-27T06:38:19.336Z,10.45
2018-04-27T06:40:46.967Z,10.62
2018-04-27T06:43:14.716Z,10.76
2018-04-27T06:45:42.515Z,10.83
2018-04-27T06:48:10.937Z,10.85
2018-04-27T06:50:38.829Z,10.98
2018-04-27T06:53:06.698Z,11.17
2018-04-27T06:55:34.514Z,11.10
2018-04-27T06:58:02.269Z,11.18
2018-04-27T07:00:30.423Z,11.32
2018-04-27T07:02:58.605Z,11.40
2018-04-27T07:05:26.485Z,11.73
2018-04-27T07:07:54.261Z,11.82
2018-04-27T07:10:22.367Z,11.73
2018-04-27T07:12:50.075Z,11.67
2018-04-27T07:15:17.826Z,12.19
2018-04-27T07:17:45.480Z,12.57
2018-04-27T07:20:13.168Z,12.82
2018-04-27T07:22:40.812Z,12.62
2018-04-27T07:25:08.657Z,12.79
2018-04-27T07:27:36.295Z,12.79
2018-04-27T07:30:04.220Z,12.93
2018-04-27T07:32:31.885Z,12.88
2018-04-27T07:34:59.498Z,12.37
2018-04-27T07:37:27.303Z,12.68
2018-04-27T07:39:54.915Z,12.80
2018-04-27T07:42:22.596Z,13.11
2018-04-27T07:44:50.281Z,13.16
2018-04-27T07:47:17.996Z,13.43
2018-04-27T07:49:45.649Z,13.76
2018-04-27T07:52:13.332Z,13.86
2018-04-27T07:54:41.000Z,14.06
2018-04-27T07:57:08.749Z,14.26
2018-04-27T07:59:36.486Z,14.46
2018-04-27T08:02:04.170Z,14.44
2018-04-27T08:04:31.898Z,14.17
2018-04-27T08:06:59.654Z,14.32
2018-04-27T08:09:27.330Z,14.53
2018-04-27T08:11:55.010Z,14.58
2018-04-27T08:14:22.738Z,14.66
2018-04-27T08:16:50.444Z,14.65
2018-04-27T08:19:18.136Z,15.02
2018-04-27T08:21:46.596Z,15.30
2018-04-27T08:24:14.348Z,15.51
2018-04-27T08:26:42.008Z,15.43
2018-04-27T08:29:09.764Z,15.75
2018-04-27T08:31:37.375Z,15.57
2018-04-27T08:34:05.053Z,15.62
2018-04-27T08:36:32.708Z,14.66
2018-04-27T08:39:00.529Z,15.25
2018-04-27T08:41:29.304Z,15.47
2018-04-27T08:43:57.208Z,15.77
2018-04-27T08:46:25.110Z,15.82
2018-04-27T08:48:52.790Z,15.64
2018-04-27T08:51:20.587Z,15.85
2018-04-27T08:53:48.272Z,15.86
2018-04-27T08:56:16.508Z,15.44
2018-04-27T08:58:44.204Z,15.04
2018-04-27T09:01:12.025Z,15.50
2018-04-27T09:03:39.990Z,15.87
2018-04-27T09:06:07.610Z,15.88
2018-04-27T09:08:35.402Z,15.64
2018-04-27T09:11:03.050Z,15.37
2018-04-27T09:13:32.061Z,16.16
2018-04-27T09:15:59.855Z,16.76
2018-04-27T09:18:27.637Z,16.64
2018-04-27T09:20:55.680Z,16.48
2018-04-27T09:23:25.405Z,16.70
2018-04-27T09:25:53.871Z,16.90
2018-04-27T09:28:21.740Z,16.46
2018-04-27T09:30:49.734Z,16.61
2018-04-27T09:33:17.407Z,16.62
2018-04-27T09:35:45.042Z,16.18
2018-04-27T09:38:12.793Z,16.47
2018-04-27T09:40:40.584Z,16.70
2018-04-27T09:43:08.315Z,16.94
2018-04-27T09:45:35.960Z,17.25
2018-04-27T09:48:03.735Z,16.71
2018-04-27T09:50:31.630Z,16.88
2018-04-27T09:52:59.395Z,17.31
2018-04-27T09:55:27.026Z,17.03
2018-04-27T09:57:54.635Z,17.01
2018-04-27T10:00:22.372Z,17.15
2018-04-27T10:02:50.040Z,17.75
2018-04-27T10:05:17.726Z,17.47
2018-04-27T10:07:45.368Z,18.12
2018-04-27T10:10:13.026Z,18.71
2018-04-27T10:12:41.570Z,19.13
2018-04-27T10:15:09.267Z,19.06
2018-04-27T10:17:36.924Z,18.03
2018-04-27T10:20:04.607Z,17.45
2018-04-27T10:22:32.345Z,18.19
2018-04-27T10:25:00.027Z,17.91
2018-04-27T10:27:27.740Z,18.39
2018-04-27T10:29:56.635Z,18.58
2018-04-27T10:32:24.325Z,18.23
2018-04-27T10:34:51.966Z,18.65
2018-04-27T10:37:19.675Z,18.68
2018-04-27T10:39:47.307Z,18.93
2018-04-27T10:42:15.057Z,19.29
2018-04-27T10:44:42.758Z,18.83
2018-04-27T10:47:10.500Z,18.05
2018-04-27T10:49:38.206Z,18.31
2018-04-27T10:52:05.965Z,18.54
2018-04-27T10:54:33.688Z,18.46
2018-04-27T10:57:02.328Z,18.65
2018-04-27T10:59:30.411Z,18.80
2018-04-27T11:01:58.070Z,18.98
2018-04-27T11:04:25.779Z,18.46
2018-04-27T11:06:53.495Z,18.92
2018-04-27T11:09:21.428Z,18.38
2018-04-27T11:11:49.403Z,18.88
2018-04-27T11:14:17.121Z,19.11
2018-04-27T11:16:45.587Z,18.73
2018-04-27T11:19:12.794Z,19.27
2018-04-27T11:21:40.860Z,19.61
2018-04-27T11:24:08.533Z,18.99
2018-04-27T11:26:37.020Z,19.08
2018-04-27T11:29:04.621Z,19.35
2018-04-27T11:31:32.343Z,18.78
2018-04-27T11:34:00.059Z,18.82
2018-04-27T11:36:27.865Z,18.79
2018-04-27T11:38:55.504Z,19.06
2018-04-27T11:41:23.169Z,19.05
2018-04-27T11:43:50.850Z,19.49
2018-04-27T11:46:18.515Z,19.12
2018-04-27T11:48:46.545Z,19.28
2018-04-27T11:51:14.242Z,19.39
2018-04-27T11:53:42.206Z,19.51
2018-04-27T11:56:10.643Z,18.91
2018-04-27T11:58:38.968Z,19.46
2018-04-27T12:01:06.974Z,19.68
2018-04-27T12:03:34.821Z,19.37
2018-04-27T12:06:02.670Z,19.42
2018-04-27T12:08:30.558Z,19.30
2018-04-27T12:10:58.211Z,19.57
2018-04-27T12:13:26.079Z,19.24
2018-04-27T12:15:53.804Z,20.01
2018-04-27T12:18:21.749Z,20.17
2018-04-27T12:20:49.456Z,19.83
2018-04-27T12:23:17.096Z,19.92
2018-04-27T12:25:45.213Z,18.95
2018-04-27T12:28:12.922Z,19.73
2018-04-27T12:30:42.013Z,19.68
2018-04-27T12:33:10.005Z,19.71
2018-04-27T12:35:38.422Z,19.94
2018-04-27T12:38:06.616Z,20.18
2018-04-27T12:40:34.462Z,20.11
2018-04-27T12:43:02.598Z,19.75
2018-04-27T12:45:30.297Z,20.02
2018-04-27T12:47:58.071Z,20.42
2018-04-27T12:50:25.727Z,20.26
2018-04-27T12:52:54.322Z,19.82
2018-04-27T12:55:22.409Z,20.14
2018-04-27T12:57:50.492Z,19.82
2018-04-27T13:00:18.128Z,19.94
2018-04-27T13:02:45.983Z,19.76
2018-04-27T13:05:14.136Z,19.74
2018-04-27T13:07:42.098Z,20.01
2018-04-27T13:10:10.131Z,20.17
2018-04-27T13:12:37.861Z,20.44
2018-04-27T13:15:05.635Z,20.17
2018-04-27T13:17:33.393Z,20.26
2018-04-27T13:20:01.877Z,19.54
2018-04-27T13:22:29.674Z,19.74
2018-04-27T13:24:57.495Z,20.01
2018-04-27T13:27:25.356Z,20.19
2018-04-27T13:29:53.047Z,19.66
2018-04-27T13:32:20.796Z,19.99
2018-04-27T13:34:49.217Z,20.37
2018-04-27T13:37:17.252Z,19.65
2018-04-27T13:39:45.301Z,20.10
2018-04-27T13:42:13.826Z,20.24
2018-04-27T13:44:41.637Z,19.92
2018-04-27T13:47:10.456Z,19.82
2018-04-27T13:49:38.136Z,19.78
2018-04-27T13:52:05.977Z,20.12
2018-04-27T13:54:34.364Z,20.58
2018-04-27T13:57:02.132Z,20.35
2018-04-27T13:59:29.803Z,20.22
2018-04-27T14:01:57.661Z,20.51
2018-04-27T14:04:25.427Z,20.36
2018-04-27T14:06:53.189Z,20.07
2018-04-27T14:09:21.160Z,20.58
2018-04-27T14:11:48.848Z,20.57
2018-04-27T14:14:16.776Z,20.68
2018-04-27T14:16:44.659Z,20.82
2018-04-27T14:19:13.629Z,20.61
2018-04-27T14:21:41.332Z,20.47
2018-04-27T14:24:09.094Z,20.73
2018-04-27T14:26:36.801Z,20.89
2018-04-27T14:29:04.816Z,20.84
2018-04-27T14:31:32.671Z,20.97
2018-04-27T14:34:00.537Z,20.74
2018-04-27T14:36:28.215Z,20.49
2018-04-27T14:38:55.802Z,20.39
2018-04-27T14:41:23.436Z,20.36
2018-04-27T14:43:51.134Z,20.54
2018-04-27T14:46:18.794Z,20.22
2018-04-27T14:48:46.628Z,20.08
2018-04-27T14:51:14.360Z,20.10
2018-04-27T14:53:41.976Z,20.34
2018-04-27T14:56:09.615Z,20.67
2018-04-27T14:58:37.371Z,20.40
2018-04-27T15:01:05.348Z,20.41
2018-04-27T15:03:33.058Z,20.52
2018-04-27T15:06:00.807Z,20.51
2018-04-27T15:08:29.074Z,20.14
2018-04-27T15:10:56.803Z,20.55
2018-04-27T15:13:24.747Z,20.39
2018-04-27T15:15:52.986Z,20.76
2018-04-27T15:18:20.702Z,20.86
2018-04-27T15:20:48.371Z,20.74
2018-04-27T15:23:16.209Z,20.70
2018-04-27T15:25:44.011Z,20.56
2018-04-27T15:28:11.641Z,20.61
2018-04-27T15:30:39.318Z,20.45
2018-04-27T15:33:06.989Z,20.35
2018-04-27T15:35:34.629Z,20.38
2018-04-27T15:38:03.147Z,20.29
2018-04-27T15:40:31.655Z,20.61
2018-04-27T15:42:59.361Z,20.04
2018-04-27T15:45:27.751Z,20.11
2018-04-27T15:47:55.415Z,20.05
2018-04-27T15:50:23.099Z,19.88
2018-04-27T15:52:50.741Z,19.88
2018-04-27T15:55:18.436Z,19.59
2018-04-27T15:57:46.291Z,19.67
2018-04-27T16:00:13.931Z,19.55
2018-04-27T16:02:42.636Z,19.58
2018-04-27T16:05:10.323Z,19.41
2018-04-27T16:07:38.162Z,19.21
2018-04-27T16:10:05.917Z,19.15
2018-04-27T16:12:34.126Z,19.15
2018-04-27T16:15:02.154Z,19.05
2018-04-27T16:17:29.943Z,18.98
2018-04-27T16:19:58.189Z,19.07
2018-04-27T16:22:25.862Z,19.05
2018-04-27T16:24:53.646Z,19.08
2018-04-27T16:27:21.269Z,18.82
2018-04-27T16:29:49.170Z,18.80
2018-04-27T16:32:16.865Z,18.71
2018-04-27T16:34:44.527Z,18.69
2018-04-27T16:37:12.266Z,18.59
2018-04-27T16:39:40.132Z,18.50
2018-04-27T16:42:08.116Z,18.59
2018-04-27T16:44:35.869Z,18.79
2018-04-27T16:47:03.738Z,18.75
2018-04-27T16:49:31.823Z,18.63
2018-04-27T16:51:59.448Z,18.38
2018-04-27T16:54:27.991Z,18.25
2018-04-27T16:56:56.605Z,17.91
2018-04-27T16:59:24.900Z,17.78
2018-04-27T17:01:52.782Z,17.74
2018-04-27T17:04:20.806Z,17.58
2018-04-27T17:06:48.618Z,17.46
2018-04-27T17:09:16.472Z,17.23
2018-04-27T17:11:44.908Z,17.07
2018-04-27T17:14:12.849Z,17.04
2018-04-27T17:16:40.702Z,16.89
2018-04-27T17:19:08.572Z,17.03
2018-04-27T17:21:36.784Z,17.14
2018-04-27T17:24:04.507Z,17.13
2018-04-27T17:26:32.370Z,17.10
2018-04-27T17:29:00.191Z,17.20
2018-04-27T17:31:28.098Z,17.07
2018-04-27T17:33:55.751Z,16.91
2018-04-27T17:36:23.534Z,16.84
2018-04-27T17:38:51.219Z,16.57
2018-04-27T17:41:19.217Z,16.53
2018-04-27T17:43:46.891Z,16.46
2018-04-27T17:46:14.591Z,16.30
2018-04-27T17:48:42.565Z,16.15
2018-04-27T17:51:11.233Z,15.97
2018-04-27T17:53:39.004Z,16.09
2018-04-27T17:56:07.094Z,16.12
2018-04-27T17:58:34.957Z,16.14
2018-04-27T18:01:03.430Z,15.82
2018-04-27T18:03:31.261Z,15.74
2018-04-27T18:05:58.949Z,15.62
2018-04-27T18:08:26.594Z,15.45
2018-04-27T18:10:55.892Z,15.38
2018-04-27T18:13:24.801Z,15.36
2018-04-27T18:15:52.699Z,15.34
2018-04-27T18:18:20.677Z,15.42
2018-04-27T18:20:48.525Z,15.58
2018-04-27T18:23:16.291Z,15.34
2018-04-27T18:25:44.462Z,15.41
2018-04-27T18:28:12.169Z,15.02
2018-04-27T18:30:39.995Z,15.05
2018-04-27T18:33:07.752Z,15.11
2018-04-27T18:35:36.624Z,14.98
2018-04-27T18:38:05.915Z,14.80
2018-04-27T18:40:33.814Z,14.68
2018-04-27T18:43:01.588Z,14.61
2018-04-27T18:45:29.354Z,14.42
2018-04-27T18:47:57.316Z,14.23
2018-04-27T18:50:26.955Z,14.06
2018-04-27T18:52:55.729Z,14.00
2018-04-27T18:55:24.316Z,13.83
2018-04-27T18:57:52.002Z,13.85
2018-04-27T19:00:19.871Z,13.78
2018-04-27T19:02:48.002Z,13.62
2018-04-27T19:05:16.660Z,13.57
2018-04-27T19:07:44.602Z,13.57
2018-04-27T19:10:13.464Z,13.48
2018-04-27T19:12:41.334Z,13.41
2018-04-27T19:15:09.040Z,13.28
2018-04-27T19:17:37.656Z,13.26
2018-04-27T19:20:05.503Z,13.38
2018-04-27T19:22:34.287Z,13.30
2018-04-27T19:25:02.764Z,13.13
2018-04-27T19:27:30.501Z,13.04
2018-04-27T19:29:58.369Z,13.19
2018-04-27T19:32:26.216Z,13.20
2018-04-27T19:34:53.948Z,13.12
2018-04-27T19:37:21.710Z,13.22
2018-04-27T19:39:49.445Z,13.35
2018-04-27T19:42:17.197Z,13.22
2018-04-27T19:44:44.872Z,13.16
2018-04-27T19:47:12.607Z,13.08
2018-04-27T19:49:40.314Z,13.15
2018-04-27T19:52:08.029Z,13.29
2018-04-27T19:54:35.723Z,12.98
2018-04-27T19:57:03.536Z,12.88
2018-04-27T19:59:31.326Z,12.64
2018-04-27T20:01:59.025Z,12.70
2018-04-27T20:04:26.785Z,12.70
2018-04-27T20:06:55.336Z,12.49
2018-04-27T20:09:23.152Z,12.46
2018-04-27T20:11:51.010Z,12.53
2018-04-27T20:14:36.795Z,12.49
2018-04-27T20:17:05.246Z,12.54
2018-04-27T20:19:38.403Z,12.57
2018-04-27T20:22:10.927Z,12.48
2018-04-27T20:24:40.280Z,12.32
2018-04-27T20:27:09.375Z,12.32
2018-04-27T20:29:37.537Z,12.24
2018-04-27T20:32:05.400Z,12.06
2018-04-27T20:34:33.396Z,12.22
2018-04-27T20:37:01.180Z,12.35
2018-04-27T20:39:29.119Z,12.32
2018-04-27T20:41:57.225Z,12.26
2018-04-27T20:44:25.397Z,12.04
2018-04-27T20:46:53.233Z,12.01
2018-04-27T20:49:21.101Z,11.94
2018-04-27T20:51:51.538Z,11.92
2018-04-27T20:54:19.704Z,11.70
2018-04-27T20:56:47.841Z,11.73
2018-04-27T20:59:15.734Z,11.82
2018-04-27T21:01:43.414Z,11.80
2018-04-27T21:04:12.096Z,11.84
2018-04-27T21:06:40.053Z,11.74
2018-04-27T21:09:10.527Z,11.67
2018-04-27T21:11:39.093Z,11.63
2018-04-27T21:14:07.137Z,11.43
2018-04-27T21:16:35.017Z,11.42
2018-04-27T21:19:03.351Z,11.43
2018-04-27T21:21:31.070Z,11.44
2018-04-27T21:23:58.818Z,11.43
2018-04-27T21:26:27.514Z,11.43
2018-04-27T21:28:56.108Z,11.36
2018-04-27T21:31:23.825Z,11.36
2018-04-27T21:33:54.650Z,11.35
2018-04-27T21:36:25.473Z,11.39
2018-04-27T21:42:06.924Z,11.34
2018-04-27T21:44:37.460Z,11.31
2018-04-27T21:50:06.823Z,11.26
2018-04-27T21:52:35.364Z,11.14
2018-04-27T21:55:03.952Z,11.12
2018-04-27T21:57:35.677Z,11.16
2018-04-27T22:00:25.942Z,11.08
2018-04-27T22:02:57.351Z,11.00
2018-04-27T22:08:27.778Z,10.95
2018-04-27T22:10:55.630Z,10.74
2018-04-27T22:13:24.774Z,10.75
2018-04-27T22:15:52.481Z,10.81
2018-04-27T22:18:20.369Z,10.85
2018-04-27T22:20:49.260Z,10.90
2018-04-27T22:23:21.759Z,10.81
2018-04-27T22:25:49.627Z,10.74
2018-04-27T22:28:34.524Z,10.68
2018-04-27T22:31:02.327Z,10.55
2018-04-27T22:33:34.839Z,10.48
2018-04-27T22:36:04.749Z,10.54
2018-04-27T22:38:37.180Z,10.44
2018-04-27T22:41:12.460Z,10.27
2018-04-27T22:43:40.154Z,9.90
2018-04-27T22:46:09.844Z,10.12
2018-04-27T22:48:41.751Z,10.15
2018-04-27T22:51:22.255Z,10.18
2018-04-27T22:54:17.600Z,10.11
2018-04-27T22:56:45.526Z,10.06
2018-04-27T22:59:13.413Z,9.89
2018-04-27T23:01:41.261Z,9.69
2018-04-27T23:04:09.037Z,9.57
2018-04-27T23:06:36.886Z,9.68
2018-04-27T23:09:04.709Z,9.78
2018-04-27T23:11:33.165Z,9.76
2018-04-27T23:14:03.778Z,9.41
2018-04-27T23:16:31.551Z,9.32
2018-04-27T23:18:59.313Z,9.35
2018-04-27T23:24:25.057Z,9.49
2018-04-27T23:26:53.532Z,9.51
2018-04-27T23:29:21.250Z,9.49
2018-04-27T23:31:48.918Z,9.42
2018-04-27T23:34:16.706Z,9.59
2018-04-27T23:36:44.420Z,9.49
2018-04-27T23:39:12.243Z,9.40
2018-04-27T23:41:40.533Z,9.35
2018-04-27T23:44:08.251Z,9.40
2018-04-27T23:46:35.923Z,9.53
2018-04-27T23:49:03.650Z,9.18
2018-04-27T23:51:31.385Z,9.26
2018-04-27T23:54:02.843Z,9.16
2018-04-27T23:56:31.384Z,9.19
2018-04-27T23:58:59.084Z,9.19
